Okauchee, WI (53069)

3:35 PM CDT on August 30, 2014 (GMT -0500)
Okauchee WI | Change Station
CLOSE
Current Station
Personal Weather Station
Location: Okauchee Lake, WI
Elevation: 906 ft
Nearby Weather Stations

Elev 906 ft 43.11 °N, 88.44 °W | Updated 3 seconds ago

Overcast
Overcast
76.5 °F
Feels Like 78 °F
N
0.0
Wind Variable Wind from South
Gusts 6.0 mph

Today
High -- | Low -- °F
--% Chance of Precip.
Yesterday
High -- | Low -- °F
Precip. -- in
6:15 AM 7:32 PM
Waxing Crescent, 24% visible
Pressure 29.81 in
Visibility 10.0 miles
Clouds Scattered Clouds 2000 ft
Mostly Cloudy 5000 ft
Heat Index 78 °F
Dew Point 69 °F
Humidity 78%
Rainfall 0.09 in
Snow Depth Not available.
UV 4 out of 12
Pollen 2.90 out of 12
Air Quality Not available.
Flu Activity Not available.
METAR KUES 301945Z 23011G20KT 10SM SCT020 BKN050 23/19 A2981

More Conditions Fewer Conditions

Pressure 29.81 in
Visibility 10.0 miles
Clouds Scattered Clouds 2000 ft
Mostly Cloudy 5000 ft
Heat Index 78 °F
Dew Point 69 °F
Humidity 78%
Rainfall 0.09 in
Snow Depth Not available.
UV 4 out of 12
Pollen 2.90 out of 12
Air Quality Not available.
Flu Activity Not available.
METAR KUES 301945Z 23011G20KT 10SM SCT020 BKN050 23/19 A2981

More Conditions Fewer Conditions

10-Day Weather Forecast

Almanac

Astronomy

Aug. 30, 2014 Rise Set
Actual Time 6:15 AM CDT 7:32 PM CDT
Civil Twilight 5:46 AM CDT 8:01 PM CDT
Nautical Twilight 5:11 AM CDT 8:36 PM CDT
Astronomical Twilight 4:33 AM CDT 9:13 PM CDT
Moon 11:11 AM CDT 9:57 PM CDT
Length of Visible Light 14h 14m
Length of Day
13h 16m
Tomorrow will be 2m 48s shorter.
Waxing Crescent, 24% of the Moon is Illuminated
Today
Waxing Crescent
Sep 2
First Quarter
Sep 8
Full
Sep 15
Last Quarter
Sep 24
New

Today's Extremes

State Highs State Lows

Community

WunderPhotos

Upload Photos

1,748,623 photos uploaded!

WunderBlogs® & News

Nearby

Snow Depth

Station Depth Elevation
No new snow has been reported.

Earthquake Activity

City Distance Mag. Time & Date
No recent earthquake activity has been reported nearby.
Minimum magnitude displayed is 2.5.

Coastal Water Temperatures

Place Temperature
No Stations Reporting

Nearby Weather Stations